Time;durP1;ratioP1;P1;durP2;ratioP2;P2;SDS_P1;SDS_P2;PMS_P1;PMS_P2;Temp;Humidity;BMP_temperature;BMP_pressure;BME280_temperature;BME280_humidity;BME280_pressure;Samples;Min_cycle;Max_cycle;Signal;HPM_P1;HPM_P2
2024/04/02 00:00:45;;;;;;;19.23;3.77;;;;;;;22.02;27.39;93447.56;5094450;28;20403;-60
2024/04/02 00:03:12;;;;;;;19.53;4.50;;;;;;;21.96;27.65;93437.91;5094417;28;20420;-61
2024/04/02 00:05:40;;;;;;;22.47;4.80;;;;;;;21.92;27.40;93442.66;5094061;28;20410;-61
2024/04/02 00:08:06;;;;;;;27.57;4.50;;;;;;;21.88;27.91;93416.00;5094050;28;20886;-61
2024/04/02 00:10:33;;;;;;;14.60;4.40;;;;;;;21.83;27.27;93433.41;5092829;28;20457;-61
2024/04/02 00:12:58;;;;;;;15.47;4.63;;;;;;;21.68;27.42;93402.34;5076143;28;20783;-62
2024/04/02 00:15:24;;;;;;;19.13;3.87;;;;;;;21.77;27.02;93418.41;5076100;28;20459;-59
2024/04/02 00:17:51;;;;;;;16.17;4.47;;;;;;;22.00;26.40;93428.53;5093918;28;20169;-59
2024/04/02 00:20:16;;;;;;;17.50;3.77;;;;;;;22.24;25.64;93406.50;5093871;28;20201;-61
2024/04/02 00:22:42;;;;;;;13.60;4.00;;;;;;;22.37;25.05;93429.28;5094088;28;20968;-61
2024/04/02 00:25:07;;;;;;;23.13;4.77;;;;;;;22.51;25.18;93427.16;5093819;28;20173;-61
2024/04/02 00:27:33;;;;;;;26.30;5.13;;;;;;;22.54;25.01;93421.63;5093734;28;20177;-61
2024/04/02 00:29:59;;;;;;;25.40;6.17;;;;;;;22.48;25.04;93436.84;5093723;28;20169;-61
2024/04/02 00:32:24;;;;;;;33.00;5.90;;;;;;;22.63;24.99;93434.28;5093803;28;20576;-61
2024/04/02 00:34:50;;;;;;;32.47;5.57;;;;;;;22.55;24.86;93401.69;5093330;28;20193;-61
2024/04/02 00:37:15;;;;;;;24.57;4.77;;;;;;;22.72;24.85;93394.78;5093683;28;20168;-59
2024/04/02 00:39:44;;;;;;;26.17;5.07;;;;;;;22.82;24.45;93414.28;5093552;28;20798;-59
2024/04/02 00:42:09;;;;;;;28.37;5.00;;;;;;;22.86;24.43;93411.44;5093626;28;20223;-60
2024/04/02 00:44:35;;;;;;;21.53;4.37;;;;;;;22.88;24.38;93409.06;5093603;28;20401;-60
2024/04/02 00:47:02;;;;;;;22.30;5.10;;;;;;;22.91;24.00;93398.16;5093286;28;20173;-59
2024/04/02 00:49:28;;;;;;;23.43;4.57;;;;;;;22.96;24.60;93429.72;5093298;28;20226;-61
2024/04/02 00:51:54;;;;;;;33.67;5.07;;;;;;;22.90;24.96;93414.72;5093260;28;20400;-61
2024/04/02 00:54:20;;;;;;;26.43;5.10;;;;;;;22.83;24.44;93415.03;5093156;28;20444;-61
2024/04/02 00:56:45;;;;;;;31.40;6.13;;;;;;;22.87;24.66;93402.94;5074826;28;20463;-60
2024/04/02 00:59:11;;;;;;;34.17;5.53;;;;;;;22.80;24.68;93421.28;5093521;28;20177;-59
2024/04/02 01:01:37;;;;;;;25.77;4.90;;;;;;;22.85;24.60;93394.63;5093563;28;20197;-61
2024/04/02 01:04:03;;;;;;;17.67;4.17;;;;;;;22.86;24.28;93408.75;5092926;28;20174;-60
2024/04/02 01:06:29;;;;;;;22.47;5.23;;;;;;;22.80;24.74;93421.28;5092908;28;20400;-59
2024/04/02 01:08:55;;;;;;;35.27;5.57;;;;;;;22.74;25.18;93397.03;5092712;28;20407;-59
2024/04/02 01:11:21;;;;;;;21.83;4.57;;;;;;;22.58;25.53;93395.41;5093306;28;20185;-59
2024/04/02 01:13:47;;;;;;;19.67;4.60;;;;;;;22.65;25.31;93437.97;5093086;28;20400;-61
2024/04/02 01:16:17;;;;;;;25.00;4.90;;;;;;;22.56;25.59;93389.75;5092705;28;20247;-61
2024/04/02 01:18:45;;;;;;;21.77;4.60;;;;;;;22.57;25.38;93401.97;5092776;28;20418;-61
2024/04/02 01:21:11;;;;;;;24.63;5.10;;;;;;;22.57;25.58;93410.00;5092721;28;20494;-60
2024/04/02 01:23:36;;;;;;;27.07;5.00;;;;;;;22.52;24.83;93417.91;5092720;28;21183;-62
2024/04/02 01:26:02;;;;;;;25.73;4.07;;;;;;;22.47;25.36;93405.88;5092805;28;20395;-59
2024/04/02 01:28:27;;;;;;;23.10;5.67;;;;;;;22.44;25.59;93406.78;5092996;28;20177;-59
2024/04/02 01:30:52;;;;;;;21.90;6.03;;;;;;;22.50;25.37;93426.41;5093030;28;20529;-59
2024/04/02 01:33:18;;;;;;;29.73;5.07;;;;;;;22.52;25.53;93434.75;5094322;28;20181;-59
2024/04/02 01:35:43;;;;;;;24.70;5.60;;;;;;;22.39;25.75;93467.09;5092593;28;20185;-61
2024/04/02 01:38:09;;;;;;;40.93;6.03;;;;;;;22.35;25.27;93388.03;5074289;28;20522;-61
2024/04/02 01:40:34;;;;;;;28.73;6.30;;;;;;;22.36;25.60;93403.66;5074427;28;20200;-61
2024/04/02 01:42:59;;;;;;;23.90;5.17;;;;;;;22.33;25.75;93406.50;5092356;28;20515;-60
2024/04/02 01:45:25;;;;;;;16.83;4.10;;;;;;;22.31;25.46;93406.22;5092297;28;20173;-60
2024/04/02 01:47:50;;;;;;;21.47;4.63;;;;;;;22.24;25.80;93414.53;5092399;28;20355;-60
2024/04/02 01:50:15;;;;;;;35.13;4.90;;;;;;;22.11;25.91;93387.91;5074423;28;20178;-59
2024/04/02 01:52:41;;;;;;;22.47;5.93;;;;;;;22.10;26.13;93391.78;5092155;28;20177;-58
2024/04/02 01:55:06;;;;;;;22.90;4.20;;;;;;;22.07;26.12;93381.97;5092021;28;20236;-61
2024/04/02 01:57:32;;;;;;;18.80;5.00;;;;;;;22.13;25.90;93394.31;5092357;28;20166;-59
2024/04/02 01:59:57;;;;;;;26.23;5.23;;;;;;;22.15;25.89;93394.59;5074094;28;20514;-60
2024/04/02 02:02:22;;;;;;;26.50;5.27;;;;;;;22.03;26.27;93382.13;5091971;28;20170;-61
2024/04/02 02:04:48;;;;;;;23.33;4.60;;;;;;;21.97;26.19;93348.34;5092222;28;20252;-60
2024/04/02 02:07:13;;;;;;;27.63;4.70;;;;;;;21.99;26.30;93335.97;5092013;28;20529;-61
2024/04/02 02:09:38;;;;;;;22.30;4.87;;;;;;;22.07;26.39;93374.69;5092253;28;20174;-60
2024/04/02 02:12:04;;;;;;;26.80;4.33;;;;;;;22.01;26.03;93355.03;5091946;28;20197;-60
2024/04/02 02:14:29;;;;;;;22.63;4.80;;;;;;;22.04;26.62;93354.16;5092318;28;20539;-59
2024/04/02 02:16:55;;;;;;;26.70;5.10;;;;;;;21.98;26.53;93342.53;5091915;28;20167;-59
2024/04/02 02:19:20;;;;;;;23.23;4.33;;;;;;;22.02;26.26;93377.19;5091699;28;20181;-60
2024/04/02 02:21:47;;;;;;;19.63;4.50;;;;;;;22.04;26.42;93346.13;5091931;28;20596;-60
2024/04/02 02:24:12;;;;;;;22.80;5.10;;;;;;;22.04;25.97;93335.41;5091740;28;20177;-60
2024/04/02 02:26:38;;;;;;;35.93;5.10;;;;;;;22.02;25.90;93343.13;5092366;28;20392;-60
2024/04/02 02:29:03;;;;;;;33.90;4.87;;;;;;;21.99;25.76;93368.13;5092954;28;20221;-60
2024/04/02 02:31:29;;;;;;;19.53;4.43;;;;;;;22.06;26.08;93295.53;5092450;28;20177;-60
2024/04/02 02:33:54;;;;;;;21.03;4.00;;;;;;;22.07;25.66;93288.97;5092984;28;20172;-61
2024/04/02 02:36:19;;;;;;;28.80;4.50;;;;;;;22.17;25.28;93302.34;5096091;28;20209;-60
2024/04/02 02:38:48;;;;;;;31.07;5.63;;;;;;;22.30;25.29;93303.66;5077595;28;20166;-60
2024/04/02 02:41:13;;;;;;;17.30;4.57;;;;;;;22.31;25.66;93318.53;5095971;28;20578;-60
2024/04/02 02:43:39;;;;;;;15.33;4.13;;;;;;;22.32;24.94;93287.13;5095924;28;20411;-61
2024/04/02 02:46:04;;;;;;;28.00;5.60;;;;;;;22.31;25.09;93294.41;5096046;28;20181;-60
2024/04/02 02:48:29;;;;;;;34.13;5.93;;;;;;;22.30;25.11;93318.97;5095692;28;20530;-59
2024/04/02 02:50:55;;;;;;;24.47;4.80;;;;;;;22.33;24.95;93310.03;5095894;28;20169;-61
2024/04/02 02:53:20;;;;;;;22.13;3.90;;;;;;;22.36;24.99;93341.28;5095568;28;20177;-59
2024/04/02 02:55:53;;;;;;;21.47;4.90;;;;;;;22.21;25.44;93308.28;5095805;28;20224;-59
2024/04/02 02:58:19;;;;;;;21.13;4.70;;;;;;;22.30;25.33;93313.59;5095805;28;20180;-59
2024/04/02 03:00:44;;;;;;;30.53;4.80;;;;;;;22.23;25.40;93321.97;5096172;28;20392;-60
2024/04/02 03:03:09;;;;;;;24.77;4.50;;;;;;;22.23;25.28;93306.63;5096005;28;20199;-61
2024/04/02 03:05:35;;;;;;;19.70;3.90;;;;;;;22.20;25.53;93286.09;5095742;28;20177;-60
2024/04/02 03:08:01;;;;;;;18.50;4.53;;;;;;;22.27;25.13;93295.75;5095645;28;20549;-59
2024/04/02 03:10:26;;;;;;;21.50;5.10;;;;;;;22.22;25.70;93282.97;5095593;28;20402;-61
2024/04/02 03:12:52;;;;;;;26.87;4.83;;;;;;;22.11;25.54;93283.44;5095195;28;20205;-61
2024/04/02 03:15:17;;;;;;;23.93;4.17;;;;;;;22.05;26.10;93330.78;5095588;28;20189;-61
2024/04/02 03:17:42;;;;;;;25.73;4.60;;;;;;;22.11;25.42;93276.16;5095037;28;20184;-59
2024/04/02 03:20:08;;;;;;;20.10;5.13;;;;;;;22.03;26.10;93358.03;5095135;28;20169;-60
2024/04/02 03:22:34;;;;;;;15.40;4.60;;;;;;;22.02;25.87;93292.22;5095098;28;20276;-60
2024/04/02 03:24:59;;;;;;;29.80;4.90;;;;;;;22.01;25.86;93314.84;5094828;28;20388;-60
2024/04/02 03:27:24;;;;;;;29.83;5.00;;;;;;;21.83;26.08;93264.75;5095021;28;20186;-60
2024/04/02 03:29:50;;;;;;;20.20;4.50;;;;;;;22.01;26.04;93306.81;5094963;28;20173;-59
2024/04/02 03:32:16;;;;;;;25.30;4.47;;;;;;;22.05;26.25;93355.66;5094795;28;20181;-61
2024/04/02 03:34:41;;;;;;;23.47;5.17;;;;;;;22.06;25.95;93319.63;5094647;28;20216;-60
2024/04/02 03:37:06;;;;;;;22.03;4.87;;;;;;;21.90;25.95;93327.19;5094676;28;20197;-60
2024/04/02 03:39:32;;;;;;;18.20;4.80;;;;;;;22.00;25.75;93313.38;5094793;28;20177;-60
2024/04/02 03:41:58;;;;;;;28.57;4.23;;;;;;;21.95;26.20;93311.28;5094975;28;20226;-59
2024/04/02 03:44:23;;;;;;;31.77;4.50;;;;;;;21.90;26.17;93327.94;5094191;28;20392;-60
2024/04/02 03:46:48;;;;;;;14.23;4.47;;;;;;;21.80;26.26;93321.13;5094772;28;20166;-59
2024/04/02 03:49:14;;;;;;;30.90;5.43;;;;;;;21.75;26.53;93319.03;5094328;28;20180;-59
2024/04/02 03:51:39;;;;;;;23.70;4.73;;;;;;;21.77;26.18;93336.16;5094487;28;20276;-59
2024/04/02 03:54:05;;;;;;;18.67;3.87;;;;;;;21.67;25.97;93315.94;5094303;28;20169;-59
2024/04/02 03:56:33;;;;;;;21.47;3.83;;;;;;;21.87;25.94;93376.28;5094229;28;20281;-61
2024/04/02 03:58:58;;;;;;;26.43;5.27;;;;;;;21.91;25.94;93345.50;5094453;28;20202;-59
2024/04/02 04:01:24;;;;;;;28.97;4.30;;;;;;;21.90;25.99;93364.69;5094292;28;20905;-59
2024/04/02 04:03:49;;;;;;;14.83;5.13;;;;;;;21.90;25.77;93362.75;5094046;28;20185;-60
2024/04/02 04:06:14;;;;;;;25.13;5.43;;;;;;;21.93;25.71;93347.72;5094295;28;20205;-60
2024/04/02 04:08:40;;;;;;;31.53;5.00;;;;;;;21.97;25.75;93353.69;5094066;28;20616;-60
2024/04/02 04:11:06;;;;;;;21.23;4.67;;;;;;;21.74;25.78;93373.78;5094057;28;20639;-58
2024/04/02 04:13:31;;;;;;;25.83;5.90;;;;;;;21.82;26.12;93366.94;5093985;28;20184;-61
2024/04/02 04:15:59;;;;;;;20.50;5.40;;;;;;;21.92;26.01;93381.78;5093974;28;20451;-59
2024/04/02 04:18:25;;;;;;;24.53;5.70;;;;;;;21.93;25.48;93379.84;5093782;28;20176;-61
2024/04/02 04:20:54;;;;;;;34.00;4.40;;;;;;;21.95;25.96;93372.16;5094038;28;20408;-60
2024/04/02 04:23:19;;;;;;;18.33;4.20;;;;;;;21.96;25.87;93358.31;5093748;28;20406;-61
2024/04/02 04:25:45;;;;;;;15.83;4.20;;;;;;;21.90;26.05;93413.63;5075817;28;20414;-61
2024/04/02 04:28:10;;;;;;;26.13;4.33;;;;;;;21.89;26.09;93382.69;5093837;28;20263;-61
2024/04/02 04:30:36;;;;;;;26.70;5.30;;;;;;;21.90;26.08;93455.72;5093663;28;20166;-60
2024/04/02 04:33:01;;;;;;;19.00;4.80;;;;;;;21.92;26.16;93362.31;5093505;28;20174;-61
2024/04/02 04:35:26;;;;;;;16.83;3.87;;;;;;;21.69;26.72;93388.50;5093368;28;20190;-61
2024/04/02 04:37:52;;;;;;;15.40;3.93;;;;;;;21.85;26.19;93435.66;5093350;28;20193;-61
2024/04/02 04:40:17;;;;;;;31.00;6.10;;;;;;;21.75;26.77;93389.41;5093324;28;20293;-61
2024/04/02 04:42:43;;;;;;;34.63;5.80;;;;;;;21.66;26.78;93405.47;5075486;28;20204;-60
2024/04/02 04:45:08;;;;;;;19.30;4.53;;;;;;;21.66;27.23;93385.97;5093404;28;20180;-60
2024/04/02 04:47:33;;;;;;;15.40;4.87;;;;;;;21.47;27.43;93383.28;5093498;28;20178;-60
2024/04/02 04:49:59;;;;;;;20.87;4.80;;;;;;;21.64;26.51;93433.88;5093199;28;20170;-60
2024/04/02 04:52:24;;;;;;;22.00;4.27;;;;;;;21.66;27.35;93378.69;5093139;28;20169;-60
2024/04/02 04:54:49;;;;;;;22.87;4.63;;;;;;;21.63;27.29;93401.00;5074396;28;20300;-60
2024/04/02 04:57:15;;;;;;;20.30;3.97;;;;;;;21.65;27.23;93411.25;5092742;28;20180;-60
2024/04/02 04:59:40;;;;;;;23.23;5.00;;;;;;;21.54;27.44;93411.66;5093296;28;20184;-61
2024/04/02 05:02:05;;;;;;;22.13;3.90;;;;;;;21.52;27.35;93387.28;5093226;28;20169;-61
2024/04/02 05:04:31;;;;;;;21.87;4.70;;;;;;;21.51;27.94;93394.56;5092804;28;20208;-61
2024/04/02 05:06:56;;;;;;;19.80;4.37;;;;;;;21.35;27.92;93440.34;5093219;28;20173;-60
2024/04/02 05:09:21;;;;;;;10.93;4.10;;;;;;;21.44;27.88;93410.91;5092985;28;20173;-62
2024/04/02 05:11:50;;;;;;;12.57;3.80;;;;;;;21.36;27.90;93409.72;5093320;28;20174;-62
2024/04/02 05:14:16;;;;;;;17.47;4.80;;;;;;;21.38;28.12;93399.31;5074812;28;20535;-60
2024/04/02 05:16:42;;;;;;;25.50;4.77;;;;;;;21.39;27.97;93408.84;5074714;28;20489;-60
2024/04/02 05:19:08;;;;;;;18.27;4.57;;;;;;;21.25;28.29;93396.03;5092803;28;20169;-59
2024/04/02 05:21:33;;;;;;;22.10;4.57;;;;;;;21.29;28.11;93383.25;5074714;28;20407;-60
2024/04/02 05:23:58;;;;;;;22.10;4.60;;;;;;;21.20;28.38;93393.91;5092617;28;20196;-61
2024/04/02 05:26:24;;;;;;;19.40;4.60;;;;;;;21.30;27.93;93398.13;5092827;28;20178;-60
2024/04/02 05:28:49;;;;;;;22.00;4.50;;;;;;;21.31;28.18;93396.19;5092722;28;20195;-60
2024/04/02 05:31:16;;;;;;;21.70;5.10;;;;;;;21.27;28.38;93431.09;5092569;28;20170;-61
2024/04/02 05:33:42;;;;;;;20.10;4.63;;;;;;;21.18;28.71;93439.06;5092365;28;20243;-62
2024/04/02 05:36:07;;;;;;;18.67;5.40;;;;;;;21.02;28.61;93396.53;5092306;28;20487;-59
2024/04/02 05:38:33;;;;;;;21.37;4.10;;;;;;;21.10;28.63;93422.53;5092685;28;20433;-61
2024/04/02 05:40:59;;;;;;;22.23;5.00;;;;;;;21.10;28.41;93419.13;5092599;28;20556;-60
2024/04/02 05:43:26;;;;;;;25.57;5.13;;;;;;;21.12;28.70;93427.44;5092623;28;20172;-61
2024/04/02 05:45:52;;;;;;;15.33;4.87;;;;;;;21.17;28.29;93432.22;5092349;28;20840;-60
2024/04/02 05:48:17;;;;;;;25.33;5.13;;;;;;;21.08;28.59;93449.00;5092142;28;20400;-61
2024/04/02 05:50:43;;;;;;;23.57;4.70;;;;;;;20.98;28.84;93433.34;5092325;28;20194;-60
2024/04/02 05:53:09;;;;;;;24.67;4.90;;;;;;;20.94;28.53;93430.06;5092175;28;20173;-62
2024/04/02 05:55:34;;;;;;;19.73;4.90;;;;;;;21.05;28.53;93447.19;5091948;28;20290;-59
2024/04/02 05:57:59;;;;;;;16.40;4.27;;;;;;;20.99;28.66;93427.56;5092356;28;20848;-60
2024/04/02 06:00:28;;;;;;;16.53;4.60;;;;;;;21.14;29.03;93417.81;5092087;28;20173;-61
2024/04/02 06:02:53;;;;;;;23.00;4.70;;;;;;;21.25;28.61;93446.13;5091880;28;20184;-61
2024/04/02 06:05:19;;;;;;;24.07;4.10;;;;;;;21.30;28.76;93456.22;5092303;28;20408;-59
2024/04/02 06:07:44;;;;;;;18.30;3.80;;;;;;;21.12;29.18;93460.28;5091913;28;20177;-61
2024/04/02 06:10:09;;;;;;;18.40;4.03;;;;;;;21.30;29.34;93448.94;5091915;28;20535;-60
2024/04/02 06:12:35;;;;;;;22.13;5.57;;;;;;;21.31;28.80;93439.75;5091957;28;20166;-59
2024/04/02 06:15:00;;;;;;;25.30;5.00;;;;;;;21.38;29.13;93465.47;5092106;28;20216;-59
2024/04/02 06:17:25;;;;;;;25.43;6.07;;;;;;;21.22;29.75;93469.84;5091771;28;20208;-64
2024/04/02 06:19:51;;;;;;;13.70;4.20;;;;;;;21.33;29.48;93463.38;5091814;28;20202;-61
2024/04/02 06:22:16;;;;;;;15.23;4.20;;;;;;;21.37;29.78;93443.31;5091810;28;20635;-61
2024/04/02 06:24:42;;;;;;;25.10;5.97;;;;;;;21.40;29.50;93463.84;5091750;28;20170;-60
2024/04/02 06:27:07;;;;;;;19.40;4.23;;;;;;;21.34;30.16;93497.72;5092052;28;20658;-60
2024/04/02 06:29:33;;;;;;;23.10;3.70;;;;;;;21.47;29.75;93506.38;5091983;28;20208;-61
2024/04/02 06:31:59;;;;;;;19.73;4.70;;;;;;;21.30;30.48;93481.06;5091543;28;20170;-60
2024/04/02 06:34:24;;;;;;;20.83;5.10;;;;;;;21.28;30.34;93491.44;5073307;28;20411;-61
2024/04/02 06:36:49;;;;;;;20.83;5.07;;;;;;;21.37;30.38;93494.16;5091835;28;20256;-61
2024/04/02 06:39:15;;;;;;;21.67;5.20;;;;;;;21.30;31.02;93481.06;5074005;28;20638;-60
2024/04/02 06:41:40;;;;;;;15.70;4.13;;;;;;;21.42;30.97;93530.28;5074238;28;20228;-60
2024/04/02 06:44:06;;;;;;;17.03;5.17;;;;;;;21.42;30.83;93490.91;5090146;28;20177;-61
2024/04/02 06:46:31;;;;;;;27.37;5.47;;;;;;;21.56;30.82;93518.28;5078893;28;20582;-60
2024/04/02 06:49:00;;;;;;;20.60;4.67;;;;;;;21.35;31.31;93491.19;5091267;28;20191;-61
2024/04/02 06:51:25;;;;;;;22.80;5.00;;;;;;;21.17;31.51;93515.13;5090487;28;20164;-61
2024/04/02 06:53:51;;;;;;;23.03;5.43;;;;;;;21.37;31.08;93507.53;5091493;28;20419;-61
2024/04/02 06:56:16;;;;;;;17.10;4.87;;;;;;;21.32;31.52;93500.09;5091386;28;20231;-60
2024/04/02 06:58:42;;;;;;;17.57;4.60;;;;;;;21.50;31.59;93531.50;5073536;28;20315;-61
2024/04/02 07:01:08;;;;;;;15.30;3.90;;;;;;;21.53;31.70;93526.00;5091291;28;20170;-60
2024/04/02 07:03:33;;;;;;;20.47;3.87;;;;;;;21.62;31.81;93511.94;5082395;28;20420;-61
2024/04/02 07:05:58;;;;;;;20.63;4.63;;;;;;;21.54;32.39;93514.13;5071251;28;20263;-59
2024/04/02 07:08:28;;;;;;;22.43;4.10;;;;;;;21.63;32.65;93523.38;5071132;28;20217;-60
2024/04/02 07:11:04;;;;;;;19.47;4.70;;;;;;;21.63;33.28;93534.84;5052064;28;20307;-60
2024/04/02 07:13:30;;;;;;;23.90;4.50;;;;;;;21.71;33.61;93543.34;5070271;28;20399;-61
2024/04/02 07:15:56;;;;;;;17.30;4.60;;;;;;;21.62;34.24;93532.59;5053273;28;20493;-61
2024/04/02 07:18:21;;;;;;;20.97;4.97;;;;;;;21.76;34.05;93548.84;5070902;28;20434;-61
2024/04/02 07:21:00;;;;;;;14.60;4.40;;;;;;;21.72;34.72;93544.81;5072546;28;20170;-61
2024/04/02 07:23:25;;;;;;;19.33;6.17;;;;;;;21.75;34.76;93535.91;5075179;28;20223;-60
2024/04/02 07:25:51;;;;;;;16.30;5.07;;;;;;;21.88;35.16;93544.56;5074632;28;20412;-61
2024/04/02 07:28:16;;;;;;;21.83;5.50;;;;;;;21.79;35.15;93550.63;5075028;28;20194;-60
2024/04/02 07:30:42;;;;;;;21.27;5.57;;;;;;;21.60;35.88;93537.66;5074362;28;20178;-62
2024/04/02 07:33:07;;;;;;;17.30;4.57;;;;;;;21.63;35.33;93548.22;5074592;28;20166;-61
2024/04/02 07:35:34;;;;;;;23.63;5.30;;;;;;;21.39;36.39;93569.38;5073409;28;20202;-60
2024/04/02 07:38:00;;;;;;;18.10;6.10;;;;;;;21.45;35.76;93550.81;5075053;28;20166;-59
2024/04/02 07:40:25;;;;;;;27.10;5.90;;;;;;;21.58;36.69;93553.41;5070908;28;20901;-59
2024/04/02 07:42:51;;;;;;;28.80;6.60;;;;;;;21.63;36.84;93560.84;5094758;28;20253;-60
2024/04/02 07:45:17;;;;;;;23.63;6.40;;;;;;;21.45;37.52;93567.63;5094419;28;20257;-61
2024/04/02 07:47:46;;;;;;;22.17;7.43;;;;;;;21.17;37.85;93572.06;5094509;28;20786;-61
2024/04/02 07:50:12;;;;;;;25.53;7.80;;;;;;;21.30;38.16;93566.66;5094483;28;20188;-61
2024/04/02 07:52:37;;;;;;;22.47;8.10;;;;;;;21.30;38.45;93577.38;5094468;28;20418;-61
2024/04/02 07:55:02;;;;;;;25.73;8.40;;;;;;;21.33;38.94;93571.13;5076172;28;20233;-61
2024/04/02 07:57:28;;;;;;;20.53;7.70;;;;;;;21.40;37.78;93554.06;5094362;28;20629;-61
2024/04/02 07:59:53;;;;;;;20.93;8.53;;;;;;;21.28;38.32;93550.31;5094747;28;20600;-61
2024/04/02 08:02:18;;;;;;;30.60;9.27;;;;;;;21.36;38.05;93572.94;5094150;28;20165;-61
2024/04/02 08:04:44;;;;;;;25.37;8.27;;;;;;;21.27;38.20;93534.69;5094210;28;20174;-61
2024/04/02 08:07:10;;;;;;;31.83;7.83;;;;;;;21.34;37.90;93545.88;5094194;28;20161;-60
2024/04/02 08:09:36;;;;;;;19.60;7.80;;;;;;;21.29;38.88;93564.44;5094569;28;20272;-60
2024/04/02 08:12:01;;;;;;;23.03;6.70;;;;;;;21.27;38.20;93540.78;5094147;28;20499;-60
2024/04/02 08:14:31;;;;;;;23.27;7.60;;;;;;;21.47;37.70;93557.22;5093932;28;20173;-62
2024/04/02 08:16:57;;;;;;;23.10;7.40;;;;;;;21.39;37.86;93534.59;5093808;28;20168;-62
2024/04/02 08:19:22;;;;;;;26.87;7.10;;;;;;;21.44;38.17;93570.72;5093970;28;20561;-59
2024/04/02 08:21:48;;;;;;;30.13;7.23;;;;;;;21.44;38.06;93555.41;5093825;28;20217;-60
2024/04/02 08:24:13;;;;;;;29.90;7.20;;;;;;;21.20;38.83;93551.72;5094133;28;20268;-61
2024/04/02 08:26:38;;;;;;;31.87;7.57;;;;;;;21.09;38.64;93570.81;5093741;28;20219;-61
2024/04/02 08:29:04;;;;;;;19.33;5.73;;;;;;;21.12;38.74;93564.59;5094269;28;20521;-61
2024/04/02 08:31:29;;;;;;;21.63;5.10;;;;;;;20.95;38.28;93565.25;5092406;28;20543;-59
2024/04/02 08:33:55;;;;;;;26.80;5.07;;;;;;;20.65;38.83;93534.59;5093575;28;20612;-60
2024/04/02 08:36:20;;;;;;;23.33;5.70;;;;;;;20.88;38.53;93526.16;5093408;28;20190;-60
2024/04/02 08:38:46;;;;;;;22.60;6.17;;;;;;;21.19;37.97;93555.59;5093976;28;20165;-61
2024/04/02 08:41:12;;;;;;;17.67;5.73;;;;;;;21.24;37.68;93549.69;5093580;28;20261;-61
2024/04/02 08:43:43;;;;;;;25.43;4.50;;;;;;;21.20;36.43;93551.72;5075514;28;20573;-62
2024/04/02 08:46:10;;;;;;;17.80;4.10;;;;;;;21.28;36.31;93528.16;5093377;28;20411;-62
2024/04/02 08:48:35;;;;;;;19.07;4.00;;;;;;;21.31;36.37;93546.00;5075257;28;20444;-61
2024/04/02 08:51:04;;;;;;;14.90;3.80;;;;;;;21.41;35.40;93529.53;5093403;28;20492;-61
2024/04/02 08:53:33;;;;;;;15.67;4.00;;;;;;;21.41;35.59;93513.50;5093703;28;20182;-61
2024/04/02 08:55:59;;;;;;;18.47;3.97;;;;;;;21.67;33.95;93486.50;5093157;28;20483;-61
2024/04/02 08:58:27;;;;;;;12.53;3.33;;;;;;;21.76;32.78;93499.91;5093088;28;20396;-62
2024/04/02 09:00:53;;;;;;;15.33;3.30;;;;;;;21.86;32.99;93536.22;5093103;28;20795;-61
2024/04/02 09:03:19;;;;;;;16.57;4.40;;;;;;;21.87;32.94;93513.59;5092988;28;20411;-61
2024/04/02 09:05:45;;;;;;;22.33;4.07;;;;;;;21.76;30.56;93570.25;5093130;28;20762;-62
2024/04/02 09:08:12;;;;;;;22.13;3.60;;;;;;;21.70;29.44;93531.88;5092915;28;20403;-61
2024/04/02 09:10:38;;;;;;;14.80;3.70;;;;;;;21.82;30.43;93552.44;5093266;28;20474;-60
2024/04/02 09:13:04;;;;;;;14.23;3.40;;;;;;;21.92;30.62;93533.69;5093249;28;20396;-63
2024/04/02 09:15:29;;;;;;;17.37;3.10;;;;;;;21.97;30.82;93515.13;5092867;28;20864;-61
2024/04/02 09:17:55;;;;;;;12.20;3.10;;;;;;;22.03;29.54;93518.72;5092821;28;20172;-62
2024/04/02 09:20:21;;;;;;;13.40;3.13;;;;;;;21.90;29.30;93520.00;5092958;28;20173;-60
2024/04/02 09:22:50;;;;;;;13.73;3.53;;;;;;;22.09;27.58;93535.69;5093318;28;20174;-62
2024/04/02 09:25:18;;;;;;;11.43;2.50;;;;;;;21.84;27.59;93560.00;5093614;28;20421;-61
2024/04/02 09:27:43;;;;;;;13.33;3.50;;;;;;;21.82;28.19;93546.31;5092596;28;20416;-60
2024/04/02 09:30:10;;;;;;;13.93;3.23;;;;;;;21.84;28.71;93496.50;5092688;28;20422;-62
2024/04/02 09:32:38;;;;;;;16.77;3.60;;;;;;;21.91;26.32;93521.50;5092570;28;20162;-62
2024/04/02 09:35:12;;;;;;;10.43;3.93;;;;;;;22.06;28.70;93523.19;5092722;28;20463;-62
2024/04/02 09:37:40;;;;;;;13.70;3.07;;;;;;;22.20;30.07;93526.47;5074418;28;20521;-62
2024/04/02 09:40:08;;;;;;;11.77;3.70;;;;;;;22.30;29.83;93526.06;5092592;28;20403;-61
2024/04/02 09:42:33;;;;;;;14.73;3.20;;;;;;;22.37;28.95;93522.31;5092008;28;20468;-62
2024/04/02 09:45:00;;;;;;;6.73;2.70;;;;;;;22.50;29.10;93530.22;5092589;28;20403;-61
2024/04/02 09:47:27;;;;;;;11.03;3.50;;;;;;;22.62;28.70;93518.56;5074308;28;20247;-61
2024/04/02 09:49:53;;;;;;;7.57;3.17;;;;;;;22.64;28.98;93534.97;5092504;28;20498;-61
2024/04/02 09:52:20;;;;;;;7.37;2.93;;;;;;;22.76;29.14;93534.81;5092589;28;20404;-61
2024/04/02 09:54:46;;;;;;;12.63;2.70;;;;;;;22.82;29.52;93547.66;5092096;28;20419;-61
2024/04/02 09:57:12;;;;;;;12.00;3.40;;;;;;;22.80;29.67;93513.19;5091888;28;20400;-61
2024/04/02 09:59:38;;;;;;;9.23;2.70;;;;;;;23.02;29.32;93529.09;5092191;28;20173;-61
2024/04/02 10:02:07;;;;;;;13.17;3.30;;;;;;;23.08;29.59;93546.84;5091899;28;20399;-61
2024/04/02 10:04:33;;;;;;;11.73;3.30;;;;;;;23.18;29.12;93546.81;5092031;28;20414;-60
2024/04/02 10:07:00;;;;;;;6.63;2.20;;;;;;;23.17;28.57;93540.72;5092036;28;20395;-62
2024/04/02 10:09:25;;;;;;;5.07;1.83;;;;;;;23.20;27.44;93558.59;5091969;28;20211;-62
2024/04/02 10:11:51;;;;;;;5.03;1.50;;;;;;;23.25;27.51;93541.88;5091763;28;20411;-64
2024/04/02 10:14:17;;;;;;;4.20;1.60;;;;;;;23.31;27.20;93555.44;5092022;28;20208;-60
2024/04/02 10:16:50;;;;;;;6.13;1.80;;;;;;;23.32;26.57;93528.13;5091686;28;20262;-62
2024/04/02 10:19:19;;;;;;;5.70;1.77;;;;;;;23.33;26.54;93537.66;5091962;28;20403;-62
2024/04/02 10:21:45;;;;;;;9.33;1.97;;;;;;;23.38;26.35;93539.75;5092357;28;20437;-60
2024/04/02 10:24:11;;;;;;;7.13;2.37;;;;;;;23.23;25.43;93512.06;5091839;28;20530;-62
2024/04/02 10:26:40;;;;;;;5.50;2.00;;;;;;;23.34;25.58;93527.69;5091899;28;20412;-61
2024/04/02 10:29:06;;;;;;;6.53;1.97;;;;;;;23.26;25.67;93532.63;5091705;28;20415;-61
2024/04/02 10:31:40;;;;;;;7.33;2.37;;;;;;;23.33;25.14;93540.34;5091836;28;20403;-61
2024/04/02 10:34:10;;;;;;;3.83;2.23;;;;;;;23.43;25.05;93522.28;5091779;28;20255;-62
2024/04/02 10:36:37;;;;;;;9.20;2.43;;;;;;;23.51;24.66;93526.13;5091358;28;20448;-62
2024/04/02 10:39:03;;;;;;;6.33;2.20;;;;;;;23.34;24.77;93515.00;5090916;28;20421;-62
2024/04/02 10:41:31;;;;;;;4.90;2.30;;;;;;;23.36;24.69;93520.66;5091563;28;20402;-60
2024/04/02 10:43:58;;;;;;;5.57;2.60;;;;;;;23.49;24.48;93517.78;5091714;28;20466;-61
2024/04/02 10:46:27;;;;;;;4.97;1.93;;;;;;;23.55;24.12;93516.00;5076912;28;20436;-62
2024/04/02 10:48:57;;;;;;;6.53;2.20;;;;;;;23.70;24.21;93538.28;5089266;28;20839;-62
2024/04/02 10:51:23;;;;;;;10.70;2.27;;;;;;;23.42;23.77;93495.91;5085914;28;20953;-63
2024/04/02 10:53:49;;;;;;;6.67;2.63;;;;;;;23.68;23.60;93515.78;5071752;28;20411;-61
2024/04/02 10:56:15;;;;;;;6.67;2.33;;;;;;;23.96;23.89;93506.38;5074723;28;20503;-61
2024/04/02 10:58:42;;;;;;;5.87;2.63;;;;;;;24.15;23.46;93508.91;5075113;28;20176;-60
2024/04/02 11:01:07;;;;;;;3.50;1.80;;;;;;;24.11;23.46;93470.72;5075351;28;20928;-60
2024/04/02 11:03:33;;;;;;;9.80;2.80;;;;;;;24.13;23.17;93471.00;5074921;28;20455;-61
2024/04/02 11:06:00;;;;;;;5.00;1.93;;;;;;;24.33;23.21;93479.25;5074963;28;20527;-61
2024/04/02 11:08:26;;;;;;;10.20;5.47;;;;;;;24.29;23.20;93492.88;5075492;28;20181;-63
2024/04/02 11:10:51;;;;;;;34.90;28.00;;;;;;;24.32;23.93;93493.91;5074681;28;20417;-62
2024/04/02 11:13:26;;;;;;;11.23;6.20;;;;;;;24.33;23.51;93478.50;5077081;28;20534;-60
2024/04/02 11:15:51;;;;;;;7.03;3.63;;;;;;;24.53;23.22;93492.84;5092422;28;20765;-63
2024/04/02 11:18:26;;;;;;;4.33;2.27;;;;;;;24.44;21.79;93495.59;5090806;28;20412;-62
2024/04/02 11:21:00;;;;;;;12.60;2.80;;;;;;;24.54;22.60;93480.88;5075017;28;20775;-63